sensor_id;sensor_type;location;lat;lon;timestamp;P1;durP1;ratioP1;P2;durP2;ratioP2
74196;SDS011;62555;52.678;4.900;2023-03-18T00:02:13;2.53;;;2.30;;
74196;SDS011;62555;52.678;4.900;2023-03-18T00:04:39;3.40;;;2.30;;
74196;SDS011;62555;52.678;4.900;2023-03-18T00:07:04;3.15;;;2.25;;
74196;SDS011;62555;52.678;4.900;2023-03-18T00:09:30;2.97;;;2.28;;
74196;SDS011;62555;52.678;4.900;2023-03-18T00:11:55;2.27;;;2.07;;
74196;SDS011;62555;52.678;4.900;2023-03-18T00:14:21;2.70;;;2.20;;
74196;SDS011;62555;52.678;4.900;2023-03-18T00:16:46;4.07;;;2.30;;
74196;SDS011;62555;52.678;4.900;2023-03-18T00:19:12;4.00;;;2.30;;
74196;SDS011;62555;52.678;4.900;2023-03-18T00:21:37;3.60;;;2.40;;
74196;SDS011;62555;52.678;4.900;2023-03-18T00:24:02;2.70;;;2.50;;
74196;SDS011;62555;52.678;4.900;2023-03-18T00:26:28;3.10;;;2.30;;
74196;SDS011;62555;52.678;4.900;2023-03-18T00:28:54;2.60;;;1.90;;
74196;SDS011;62555;52.678;4.900;2023-03-18T00:31:19;3.17;;;2.47;;
74196;SDS011;62555;52.678;4.900;2023-03-18T00:33:45;3.42;;;2.30;;
74196;SDS011;62555;52.678;4.900;2023-03-18T00:36:12;3.13;;;2.38;;
74196;SDS011;62555;52.678;4.900;2023-03-18T00:38:38;3.50;;;2.45;;
74196;SDS011;62555;52.678;4.900;2023-03-18T00:41:03;2.33;;;2.13;;
74196;SDS011;62555;52.678;4.900;2023-03-18T00:43:35;2.30;;;2.10;;
74196;SDS011;62555;52.678;4.900;2023-03-18T00:46:10;2.88;;;1.98;;
74196;SDS011;62555;52.678;4.900;2023-03-18T00:48:35;2.55;;;2.05;;
74196;SDS011;62555;52.678;4.900;2023-03-18T00:51:00;3.53;;;2.05;;
74196;SDS011;62555;52.678;4.900;2023-03-18T00:53:25;2.07;;;1.87;;
74196;SDS011;62555;52.678;4.900;2023-03-18T00:55:51;2.87;;;1.83;;
74196;SDS011;62555;52.678;4.900;2023-03-18T00:58:17;2.25;;;1.85;;
74196;SDS011;62555;52.678;4.900;2023-03-18T01:00:42;2.13;;;1.80;;
74196;SDS011;62555;52.678;4.900;2023-03-18T01:03:08;2.17;;;1.95;;
74196;SDS011;62555;52.678;4.900;2023-03-18T01:05:33;2.50;;;1.87;;
74196;SDS011;62555;52.678;4.900;2023-03-18T01:07:59;3.00;;;2.67;;
74196;SDS011;62555;52.678;4.900;2023-03-18T01:10:25;3.08;;;2.00;;
74196;SDS011;62555;52.678;4.900;2023-03-18T01:12:51;2.28;;;2.08;;
74196;SDS011;62555;52.678;4.900;2023-03-18T01:15:17;2.70;;;1.70;;
74196;SDS011;62555;52.678;4.900;2023-03-18T01:17:43;3.22;;;2.20;;
74196;SDS011;62555;52.678;4.900;2023-03-18T01:20:09;2.33;;;1.85;;
74196;SDS011;62555;52.678;4.900;2023-03-18T01:22:35;2.85;;;1.80;;
74196;SDS011;62555;52.678;4.900;2023-03-18T01:25:00;2.57;;;1.70;;
74196;SDS011;62555;52.678;4.900;2023-03-18T01:27:26;4.05;;;2.03;;
74196;SDS011;62555;52.678;4.900;2023-03-18T01:29:52;2.40;;;1.92;;
74196;SDS011;62555;52.678;4.900;2023-03-18T01:32:17;2.33;;;1.60;;
74196;SDS011;62555;52.678;4.900;2023-03-18T01:34:42;2.27;;;1.97;;
74196;SDS011;62555;52.678;4.900;2023-03-18T01:37:08;3.13;;;1.90;;
74196;SDS011;62555;52.678;4.900;2023-03-18T01:39:33;2.50;;;2.17;;
74196;SDS011;62555;52.678;4.900;2023-03-18T01:41:59;2.63;;;1.70;;
74196;SDS011;62555;52.678;4.900;2023-03-18T01:44:24;3.10;;;1.92;;
74196;SDS011;62555;52.678;4.900;2023-03-18T01:46:50;1.92;;;1.67;;
74196;SDS011;62555;52.678;4.900;2023-03-18T01:51:42;2.38;;;1.60;;
74196;SDS011;62555;52.678;4.900;2023-03-18T01:54:10;3.15;;;2.30;;
74196;SDS011;62555;52.678;4.900;2023-03-18T01:56:36;2.78;;;2.20;;
74196;SDS011;62555;52.678;4.900;2023-03-18T01:59:03;2.45;;;2.00;;
74196;SDS011;62555;52.678;4.900;2023-03-18T02:01:37;3.40;;;2.30;;
74196;SDS011;62555;52.678;4.900;2023-03-18T02:04:04;2.47;;;2.03;;
74196;SDS011;62555;52.678;4.900;2023-03-18T02:06:30;2.25;;;2.05;;
74196;SDS011;62555;52.678;4.900;2023-03-18T02:08:55;2.50;;;1.90;;
74196;SDS011;62555;52.678;4.900;2023-03-18T02:11:21;2.80;;;1.77;;
74196;SDS011;62555;52.678;4.900;2023-03-18T02:13:47;2.38;;;1.92;;
74196;SDS011;62555;52.678;4.900;2023-03-18T02:16:14;2.13;;;1.80;;
74196;SDS011;62555;52.678;4.900;2023-03-18T02:18:42;3.47;;;2.22;;
74196;SDS011;62555;52.678;4.900;2023-03-18T02:21:14;3.17;;;2.13;;
74196;SDS011;62555;52.678;4.900;2023-03-18T02:23:49;3.13;;;1.92;;
74196;SDS011;62555;52.678;4.900;2023-03-18T02:26:32;2.25;;;2.05;;
74196;SDS011;62555;52.678;4.900;2023-03-18T02:29:01;2.80;;;1.83;;
74196;SDS011;62555;52.678;4.900;2023-03-18T02:31:27;2.67;;;2.05;;
74196;SDS011;62555;52.678;4.900;2023-03-18T02:33:53;2.65;;;1.80;;
74196;SDS011;62555;52.678;4.900;2023-03-18T02:36:21;3.40;;;1.90;;
74196;SDS011;62555;52.678;4.900;2023-03-18T02:38:47;2.67;;;1.95;;
74196;SDS011;62555;52.678;4.900;2023-03-18T02:41:16;3.53;;;2.50;;
74196;SDS011;62555;52.678;4.900;2023-03-18T02:43:42;3.63;;;1.90;;
74196;SDS011;62555;52.678;4.900;2023-03-18T02:46:16;3.53;;;2.60;;
74196;SDS011;62555;52.678;4.900;2023-03-18T02:48:45;3.15;;;2.22;;
74196;SDS011;62555;52.678;4.900;2023-03-18T02:51:11;2.40;;;2.08;;
74196;SDS011;62555;52.678;4.900;2023-03-18T02:53:36;2.20;;;2.00;;
74196;SDS011;62555;52.678;4.900;2023-03-18T02:56:02;2.75;;;2.00;;
74196;SDS011;62555;52.678;4.900;2023-03-18T02:58:27;2.80;;;2.25;;
74196;SDS011;62555;52.678;4.900;2023-03-18T03:00:52;2.27;;;2.00;;
74196;SDS011;62555;52.678;4.900;2023-03-18T03:03:18;3.53;;;2.50;;
74196;SDS011;62555;52.678;4.900;2023-03-18T03:05:43;2.83;;;2.27;;
74196;SDS011;62555;52.678;4.900;2023-03-18T03:08:09;3.07;;;2.10;;
74196;SDS011;62555;52.678;4.900;2023-03-18T03:10:34;3.05;;;2.33;;
74196;SDS011;62555;52.678;4.900;2023-03-18T03:13:00;2.78;;;1.83;;
74196;SDS011;62555;52.678;4.900;2023-03-18T03:15:26;3.85;;;2.60;;
74196;SDS011;62555;52.678;4.900;2023-03-18T03:17:51;3.23;;;2.40;;
74196;SDS011;62555;52.678;4.900;2023-03-18T03:20:17;2.90;;;2.30;;
74196;SDS011;62555;52.678;4.900;2023-03-18T03:22:42;2.33;;;2.08;;
74196;SDS011;62555;52.678;4.900;2023-03-18T03:25:08;2.90;;;2.03;;
74196;SDS011;62555;52.678;4.900;2023-03-18T03:27:33;3.05;;;2.08;;
74196;SDS011;62555;52.678;4.900;2023-03-18T03:29:58;3.03;;;2.70;;
74196;SDS011;62555;52.678;4.900;2023-03-18T03:32:24;2.50;;;2.10;;
74196;SDS011;62555;52.678;4.900;2023-03-18T03:34:49;2.47;;;2.20;;
74196;SDS011;62555;52.678;4.900;2023-03-18T03:37:14;3.40;;;2.50;;
74196;SDS011;62555;52.678;4.900;2023-03-18T03:39:39;3.33;;;2.40;;
74196;SDS011;62555;52.678;4.900;2023-03-18T03:42:04;3.22;;;2.40;;
74196;SDS011;62555;52.678;4.900;2023-03-18T03:44:30;2.77;;;2.27;;
74196;SDS011;62555;52.678;4.900;2023-03-18T03:46:55;3.42;;;2.40;;
74196;SDS011;62555;52.678;4.900;2023-03-18T03:49:21;2.53;;;2.33;;
74196;SDS011;62555;52.678;4.900;2023-03-18T03:51:46;3.33;;;2.50;;
74196;SDS011;62555;52.678;4.900;2023-03-18T03:54:12;2.95;;;2.30;;
74196;SDS011;62555;52.678;4.900;2023-03-18T03:56:38;2.67;;;2.25;;
74196;SDS011;62555;52.678;4.900;2023-03-18T03:59:03;3.47;;;2.80;;
74196;SDS011;62555;52.678;4.900;2023-03-18T04:01:28;3.00;;;2.53;;
74196;SDS011;62555;52.678;4.900;2023-03-18T04:03:53;3.40;;;2.97;;
74196;SDS011;62555;52.678;4.900;2023-03-18T04:06:19;3.35;;;2.35;;
74196;SDS011;62555;52.678;4.900;2023-03-18T04:08:44;3.43;;;3.03;;
74196;SDS011;62555;52.678;4.900;2023-03-18T04:11:10;3.03;;;2.17;;
74196;SDS011;62555;52.678;4.900;2023-03-18T04:13:36;2.65;;;2.35;;
74196;SDS011;62555;52.678;4.900;2023-03-18T04:16:01;3.07;;;2.27;;
74196;SDS011;62555;52.678;4.900;2023-03-18T04:18:26;3.53;;;2.70;;
74196;SDS011;62555;52.678;4.900;2023-03-18T04:20:51;3.50;;;2.60;;
74196;SDS011;62555;52.678;4.900;2023-03-18T04:23:17;3.00;;;2.33;;
74196;SDS011;62555;52.678;4.900;2023-03-18T04:25:42;2.67;;;2.40;;
74196;SDS011;62555;52.678;4.900;2023-03-18T04:28:07;4.35;;;2.47;;
74196;SDS011;62555;52.678;4.900;2023-03-18T04:30:32;3.40;;;2.33;;
74196;SDS011;62555;52.678;4.900;2023-03-18T04:32:58;4.17;;;2.47;;
74196;SDS011;62555;52.678;4.900;2023-03-18T04:35:25;4.07;;;2.55;;
74196;SDS011;62555;52.678;4.900;2023-03-18T04:37:50;2.95;;;2.58;;
74196;SDS011;62555;52.678;4.900;2023-03-18T04:40:16;2.65;;;2.42;;
74196;SDS011;62555;52.678;4.900;2023-03-18T04:42:42;3.72;;;2.17;;
74196;SDS011;62555;52.678;4.900;2023-03-18T04:45:09;2.60;;;2.20;;
74196;SDS011;62555;52.678;4.900;2023-03-18T04:47:34;4.43;;;2.75;;
74196;SDS011;62555;52.678;4.900;2023-03-18T04:50:01;2.92;;;2.67;;
74196;SDS011;62555;52.678;4.900;2023-03-18T04:52:28;5.15;;;3.30;;
74196;SDS011;62555;52.678;4.900;2023-03-18T04:54:53;3.00;;;2.10;;
74196;SDS011;62555;52.678;4.900;2023-03-18T04:57:18;2.83;;;2.40;;
74196;SDS011;62555;52.678;4.900;2023-03-18T04:59:44;3.63;;;2.90;;
74196;SDS011;62555;52.678;4.900;2023-03-18T05:02:09;3.50;;;2.53;;
74196;SDS011;62555;52.678;4.900;2023-03-18T05:04:34;2.80;;;2.50;;
74196;SDS011;62555;52.678;4.900;2023-03-18T05:07:00;3.87;;;3.00;;
74196;SDS011;62555;52.678;4.900;2023-03-18T05:09:25;4.93;;;2.67;;
74196;SDS011;62555;52.678;4.900;2023-03-18T05:11:51;3.17;;;2.72;;
74196;SDS011;62555;52.678;4.900;2023-03-18T05:14:16;3.93;;;2.83;;
74196;SDS011;62555;52.678;4.900;2023-03-18T05:16:41;4.67;;;3.07;;
74196;SDS011;62555;52.678;4.900;2023-03-18T05:19:07;4.45;;;2.67;;
74196;SDS011;62555;52.678;4.900;2023-03-18T05:21:33;3.08;;;2.58;;
74196;SDS011;62555;52.678;4.900;2023-03-18T05:23:59;2.50;;;2.30;;
74196;SDS011;62555;52.678;4.900;2023-03-18T05:26:25;2.87;;;2.37;;
74196;SDS011;62555;52.678;4.900;2023-03-18T05:28:50;2.67;;;2.37;;
74196;SDS011;62555;52.678;4.900;2023-03-18T05:31:16;2.88;;;2.47;;
74196;SDS011;62555;52.678;4.900;2023-03-18T05:33:41;3.30;;;2.77;;
74196;SDS011;62555;52.678;4.900;2023-03-18T05:36:07;2.50;;;2.30;;
74196;SDS011;62555;52.678;4.900;2023-03-18T05:38:33;3.25;;;2.90;;
74196;SDS011;62555;52.678;4.900;2023-03-18T05:40:58;3.93;;;2.90;;
74196;SDS011;62555;52.678;4.900;2023-03-18T05:43:24;4.30;;;3.10;;
74196;SDS011;62555;52.678;4.900;2023-03-18T05:45:50;3.67;;;2.88;;
74196;SDS011;62555;52.678;4.900;2023-03-18T05:48:15;4.13;;;2.97;;
74196;SDS011;62555;52.678;4.900;2023-03-18T05:50:42;3.33;;;2.63;;
74196;SDS011;62555;52.678;4.900;2023-03-18T05:53:07;3.95;;;3.42;;
74196;SDS011;62555;52.678;4.900;2023-03-18T05:55:33;3.63;;;2.92;;
74196;SDS011;62555;52.678;4.900;2023-03-18T05:57:59;3.22;;;2.30;;
74196;SDS011;62555;52.678;4.900;2023-03-18T06:00:25;3.37;;;2.67;;
74196;SDS011;62555;52.678;4.900;2023-03-18T06:02:50;3.85;;;2.85;;
74196;SDS011;62555;52.678;4.900;2023-03-18T06:05:18;4.25;;;2.83;;
74196;SDS011;62555;52.678;4.900;2023-03-18T06:07:44;4.53;;;3.15;;
74196;SDS011;62555;52.678;4.900;2023-03-18T06:10:10;3.95;;;2.67;;
74196;SDS011;62555;52.678;4.900;2023-03-18T06:12:36;4.35;;;2.92;;
74196;SDS011;62555;52.678;4.900;2023-03-18T06:15:01;3.42;;;2.90;;
74196;SDS011;62555;52.678;4.900;2023-03-18T06:17:27;4.35;;;3.33;;
74196;SDS011;62555;52.678;4.900;2023-03-18T06:19:53;3.30;;;2.88;;
74196;SDS011;62555;52.678;4.900;2023-03-18T06:22:18;5.15;;;3.30;;
74196;SDS011;62555;52.678;4.900;2023-03-18T06:24:43;3.70;;;2.80;;
74196;SDS011;62555;52.678;4.900;2023-03-18T06:27:08;4.17;;;2.80;;
74196;SDS011;62555;52.678;4.900;2023-03-18T06:29:34;3.77;;;3.27;;
74196;SDS011;62555;52.678;4.900;2023-03-18T06:32:00;3.67;;;3.10;;
74196;SDS011;62555;52.678;4.900;2023-03-18T06:34:26;4.18;;;3.45;;
74196;SDS011;62555;52.678;4.900;2023-03-18T06:36:51;4.17;;;3.77;;
74196;SDS011;62555;52.678;4.900;2023-03-18T06:39:17;4.03;;;3.25;;
74196;SDS011;62555;52.678;4.900;2023-03-18T06:41:43;5.60;;;3.08;;
74196;SDS011;62555;52.678;4.900;2023-03-18T06:44:08;4.23;;;3.40;;
74196;SDS011;62555;52.678;4.900;2023-03-18T06:46:34;4.20;;;3.40;;
74196;SDS011;62555;52.678;4.900;2023-03-18T06:48:59;3.55;;;3.22;;
74196;SDS011;62555;52.678;4.900;2023-03-18T06:51:25;3.63;;;2.88;;
74196;SDS011;62555;52.678;4.900;2023-03-18T06:53:50;3.85;;;3.00;;
74196;SDS011;62555;52.678;4.900;2023-03-18T06:56:16;4.13;;;3.27;;
74196;SDS011;62555;52.678;4.900;2023-03-18T06:58:41;4.40;;;3.65;;
74196;SDS011;62555;52.678;4.900;2023-03-18T07:01:07;3.90;;;3.05;;
74196;SDS011;62555;52.678;4.900;2023-03-18T07:03:32;5.13;;;3.67;;
74196;SDS011;62555;52.678;4.900;2023-03-18T07:05:57;4.70;;;3.40;;
74196;SDS011;62555;52.678;4.900;2023-03-18T07:08:22;3.97;;;3.27;;
74196;SDS011;62555;52.678;4.900;2023-03-18T07:10:50;4.60;;;3.33;;
74196;SDS011;62555;52.678;4.900;2023-03-18T07:13:15;4.15;;;3.47;;
74196;SDS011;62555;52.678;4.900;2023-03-18T07:15:40;3.90;;;3.10;;
74196;SDS011;62555;52.678;4.900;2023-03-18T07:18:05;3.27;;;2.70;;
74196;SDS011;62555;52.678;4.900;2023-03-18T07:20:30;3.40;;;2.67;;
74196;SDS011;62555;52.678;4.900;2023-03-18T07:22:56;3.63;;;3.30;;
74196;SDS011;62555;52.678;4.900;2023-03-18T07:25:21;3.40;;;3.00;;
74196;SDS011;62555;52.678;4.900;2023-03-18T07:27:47;3.90;;;3.27;;
74196;SDS011;62555;52.678;4.900;2023-03-18T07:30:12;5.13;;;3.23;;
74196;SDS011;62555;52.678;4.900;2023-03-18T07:32:37;3.75;;;3.33;;
74196;SDS011;62555;52.678;4.900;2023-03-18T07:35:03;4.03;;;3.07;;
74196;SDS011;62555;52.678;4.900;2023-03-18T07:37:29;4.70;;;3.10;;
74196;SDS011;62555;52.678;4.900;2023-03-18T07:39:54;4.57;;;3.00;;
74196;SDS011;62555;52.678;4.900;2023-03-18T07:42:20;5.65;;;3.10;;
74196;SDS011;62555;52.678;4.900;2023-03-18T07:44:45;3.67;;;3.38;;
74196;SDS011;62555;52.678;4.900;2023-03-18T07:47:10;5.25;;;3.33;;
74196;SDS011;62555;52.678;4.900;2023-03-18T07:49:36;3.22;;;2.92;;
74196;SDS011;62555;52.678;4.900;2023-03-18T07:52:01;4.43;;;2.88;;
74196;SDS011;62555;52.678;4.900;2023-03-18T07:54:26;3.47;;;3.17;;
74196;SDS011;62555;52.678;4.900;2023-03-18T07:56:52;3.60;;;3.30;;
74196;SDS011;62555;52.678;4.900;2023-03-18T07:59:17;3.33;;;3.03;;
74196;SDS011;62555;52.678;4.900;2023-03-18T08:01:43;3.80;;;2.90;;
74196;SDS011;62555;52.678;4.900;2023-03-18T08:04:08;3.40;;;3.00;;
74196;SDS011;62555;52.678;4.900;2023-03-18T08:06:34;4.18;;;2.97;;
74196;SDS011;62555;52.678;4.900;2023-03-18T08:09:00;3.75;;;3.33;;
74196;SDS011;62555;52.678;4.900;2023-03-18T08:11:25;3.38;;;2.85;;
74196;SDS011;62555;52.678;4.900;2023-03-18T08:13:50;3.93;;;2.90;;
74196;SDS011;62555;52.678;4.900;2023-03-18T08:16:15;3.93;;;3.10;;
74196;SDS011;62555;52.678;4.900;2023-03-18T08:18:42;3.33;;;2.70;;
74196;SDS011;62555;52.678;4.900;2023-03-18T08:21:07;3.33;;;2.80;;
74196;SDS011;62555;52.678;4.900;2023-03-18T08:23:33;3.67;;;3.10;;
74196;SDS011;62555;52.678;4.900;2023-03-18T08:25:58;3.80;;;2.40;;
74196;SDS011;62555;52.678;4.900;2023-03-18T08:28:23;3.87;;;3.10;;
74196;SDS011;62555;52.678;4.900;2023-03-18T08:30:56;3.40;;;2.78;;
74196;SDS011;62555;52.678;4.900;2023-03-18T08:33:22;3.58;;;2.90;;
74196;SDS011;62555;52.678;4.900;2023-03-18T08:35:47;3.13;;;2.72;;
74196;SDS011;62555;52.678;4.900;2023-03-18T08:38:13;4.07;;;2.83;;
74196;SDS011;62555;52.678;4.900;2023-03-18T08:40:39;3.43;;;2.87;;
74196;SDS011;62555;52.678;4.900;2023-03-18T08:43:05;3.67;;;2.95;;
74196;SDS011;62555;52.678;4.900;2023-03-18T08:45:31;3.47;;;2.70;;
74196;SDS011;62555;52.678;4.900;2023-03-18T08:47:56;4.10;;;2.77;;
74196;SDS011;62555;52.678;4.900;2023-03-18T08:50:21;2.97;;;2.67;;
74196;SDS011;62555;52.678;4.900;2023-03-18T08:52:52;4.20;;;3.22;;
74196;SDS011;62555;52.678;4.900;2023-03-18T08:55:17;3.05;;;2.70;;
74196;SDS011;62555;52.678;4.900;2023-03-18T08:57:45;3.55;;;2.78;;
74196;SDS011;62555;52.678;4.900;2023-03-18T09:00:11;3.72;;;3.00;;
74196;SDS011;62555;52.678;4.900;2023-03-18T09:02:37;4.60;;;3.30;;
74196;SDS011;62555;52.678;4.900;2023-03-18T09:05:02;4.63;;;3.27;;
74196;SDS011;62555;52.678;4.900;2023-03-18T09:07:28;3.47;;;2.75;;
74196;SDS011;62555;52.678;4.900;2023-03-18T09:09:53;2.93;;;2.63;;
74196;SDS011;62555;52.678;4.900;2023-03-18T09:12:18;3.50;;;3.20;;
74196;SDS011;62555;52.678;4.900;2023-03-18T09:14:43;3.30;;;2.85;;
74196;SDS011;62555;52.678;4.900;2023-03-18T09:17:09;4.20;;;2.85;;
74196;SDS011;62555;52.678;4.900;2023-03-18T09:19:34;3.38;;;2.63;;
74196;SDS011;62555;52.678;4.900;2023-03-18T09:22:00;3.85;;;3.08;;
74196;SDS011;62555;52.678;4.900;2023-03-18T09:24:25;4.30;;;2.93;;
74196;SDS011;62555;52.678;4.900;2023-03-18T09:26:50;3.17;;;2.80;;
74196;SDS011;62555;52.678;4.900;2023-03-18T09:29:16;3.20;;;2.90;;
74196;SDS011;62555;52.678;4.900;2023-03-18T09:31:41;2.88;;;2.58;;
74196;SDS011;62555;52.678;4.900;2023-03-18T09:34:06;3.35;;;2.80;;
74196;SDS011;62555;52.678;4.900;2023-03-18T09:36:31;3.17;;;2.87;;
74196;SDS011;62555;52.678;4.900;2023-03-18T09:38:57;3.58;;;2.63;;
74196;SDS011;62555;52.678;4.900;2023-03-18T09:44:05;3.30;;;2.80;;
74196;SDS011;62555;52.678;4.900;2023-03-18T09:49:13;4.65;;;2.60;;
74196;SDS011;62555;52.678;4.900;2023-03-18T09:56:50;4.78;;;3.00;;
74196;SDS011;62555;52.678;4.900;2023-03-18T09:59:20;3.78;;;3.13;;
74196;SDS011;62555;52.678;4.900;2023-03-18T10:01:49;4.20;;;3.05;;
74196;SDS011;62555;52.678;4.900;2023-03-18T10:06:46;4.93;;;3.33;;
74196;SDS011;62555;52.678;4.900;2023-03-18T10:09:19;3.53;;;2.53;;
74196;SDS011;62555;52.678;4.900;2023-03-18T10:11:48;3.13;;;2.60;;
74196;SDS011;62555;52.678;4.900;2023-03-18T10:19:30;3.67;;;2.70;;
74196;SDS011;62555;52.678;4.900;2023-03-18T10:22:18;3.25;;;2.53;;
74196;SDS011;62555;52.678;4.900;2023-03-18T10:32:30;2.70;;;2.43;;
74196;SDS011;62555;52.678;4.900;2023-03-18T10:37:45;2.72;;;2.35;;
74196;SDS011;62555;52.678;4.900;2023-03-18T10:40:14;2.47;;;2.28;;
74196;SDS011;62555;52.678;4.900;2023-03-18T10:42:40;3.22;;;2.10;;
74196;SDS011;62555;52.678;4.900;2023-03-18T10:45:13;3.65;;;2.15;;
74196;SDS011;62555;52.678;4.900;2023-03-18T10:47:41;2.10;;;1.90;;
74196;SDS011;62555;52.678;4.900;2023-03-18T10:50:15;3.25;;;2.50;;
74196;SDS011;62555;52.678;4.900;2023-03-18T10:52:46;2.90;;;1.92;;
74196;SDS011;62555;52.678;4.900;2023-03-18T10:55:17;4.30;;;2.25;;
74196;SDS011;62555;52.678;4.900;2023-03-18T10:57:44;2.97;;;2.30;;
74196;SDS011;62555;52.678;4.900;2023-03-18T11:00:29;2.37;;;2.17;;
74196;SDS011;62555;52.678;4.900;2023-03-18T11:02:56;2.75;;;2.38;;
74196;SDS011;62555;52.678;4.900;2023-03-18T11:05:26;2.75;;;2.10;;
74196;SDS011;62555;52.678;4.900;2023-03-18T11:07:59;1.90;;;1.73;;
74196;SDS011;62555;52.678;4.900;2023-03-18T11:10:30;3.13;;;2.20;;
74196;SDS011;62555;52.678;4.900;2023-03-18T11:12:59;2.60;;;1.75;;
74196;SDS011;62555;52.678;4.900;2023-03-18T11:15:26;2.00;;;1.70;;
74196;SDS011;62555;52.678;4.900;2023-03-18T11:17:51;2.17;;;1.60;;
74196;SDS011;62555;52.678;4.900;2023-03-18T11:20:22;2.35;;;1.73;;
74196;SDS011;62555;52.678;4.900;2023-03-18T11:22:49;1.77;;;1.45;;
74196;SDS011;62555;52.678;4.900;2023-03-18T11:25:17;2.72;;;1.70;;
74196;SDS011;62555;52.678;4.900;2023-03-18T11:27:47;1.90;;;1.45;;
74196;SDS011;62555;52.678;4.900;2023-03-18T11:30:22;2.35;;;1.77;;
74196;SDS011;62555;52.678;4.900;2023-03-18T11:35:20;3.28;;;2.10;;
74196;SDS011;62555;52.678;4.900;2023-03-18T11:37:46;2.42;;;1.88;;
74196;SDS011;62555;52.678;4.900;2023-03-18T11:42:45;3.60;;;1.60;;
74196;SDS011;62555;52.678;4.900;2023-03-18T11:47:42;3.10;;;1.95;;
74196;SDS011;62555;52.678;4.900;2023-03-18T11:50:08;2.95;;;1.70;;
74196;SDS011;62555;52.678;4.900;2023-03-18T11:52:45;2.08;;;1.55;;
74196;SDS011;62555;52.678;4.900;2023-03-18T11:55:16;2.10;;;1.60;;
74196;SDS011;62555;52.678;4.900;2023-03-18T11:57:52;2.17;;;2.00;;
74196;SDS011;62555;52.678;4.900;2023-03-18T12:07:46;2.25;;;1.45;;
74196;SDS011;62555;52.678;4.900;2023-03-18T12:10:24;1.50;;;1.40;;
74196;SDS011;62555;52.678;4.900;2023-03-18T12:13:07;3.13;;;1.67;;
74196;SDS011;62555;52.678;4.900;2023-03-18T12:18:22;1.43;;;1.20;;
74196;SDS011;62555;52.678;4.900;2023-03-18T12:20:51;2.00;;;1.80;;
74196;SDS011;62555;52.678;4.900;2023-03-18T12:23:27;1.88;;;1.40;;
74196;SDS011;62555;52.678;4.900;2023-03-18T12:25:57;1.80;;;1.58;;
74196;SDS011;62555;52.678;4.900;2023-03-18T12:33:41;1.55;;;1.42;;
74196;SDS011;62555;52.678;4.900;2023-03-18T12:36:12;1.70;;;1.58;;
74196;SDS011;62555;52.678;4.900;2023-03-18T12:41:09;1.60;;;1.50;;
74196;SDS011;62555;52.678;4.900;2023-03-18T12:43:39;1.92;;;1.60;;
74196;SDS011;62555;52.678;4.900;2023-03-18T12:46:22;1.63;;;1.52;;
74196;SDS011;62555;52.678;4.900;2023-03-18T12:48:50;2.17;;;1.52;;
74196;SDS011;62555;52.678;4.900;2023-03-18T12:51:19;1.90;;;1.60;;
74196;SDS011;62555;52.678;4.900;2023-03-18T12:53:50;2.20;;;1.70;;
74196;SDS011;62555;52.678;4.900;2023-03-18T12:56:25;1.92;;;1.63;;
74196;SDS011;62555;52.678;4.900;2023-03-18T12:58:53;1.83;;;1.60;;
74196;SDS011;62555;52.678;4.900;2023-03-18T13:01:21;3.30;;;1.42;;
74196;SDS011;62555;52.678;4.900;2023-03-18T13:03:53;2.35;;;1.67;;
74196;SDS011;62555;52.678;4.900;2023-03-18T13:11:27;2.47;;;1.73;;
74196;SDS011;62555;52.678;4.900;2023-03-18T13:13:55;1.70;;;1.60;;
74196;SDS011;62555;52.678;4.900;2023-03-18T13:16:24;2.35;;;1.70;;
74196;SDS011;62555;52.678;4.900;2023-03-18T13:18:51;2.78;;;1.60;;
74196;SDS011;62555;52.678;4.900;2023-03-18T13:21:18;1.88;;;1.67;;
74196;SDS011;62555;52.678;4.900;2023-03-18T13:31:40;2.40;;;1.77;;
74196;SDS011;62555;52.678;4.900;2023-03-18T13:36:47;1.85;;;1.60;;
74196;SDS011;62555;52.678;4.900;2023-03-18T13:39:18;1.88;;;1.50;;
74196;SDS011;62555;52.678;4.900;2023-03-18T13:44:24;2.25;;;1.85;;
74196;SDS011;62555;52.678;4.900;2023-03-18T13:46:53;2.35;;;2.15;;
74196;SDS011;62555;52.678;4.900;2023-03-18T13:49:21;3.15;;;1.98;;
74196;SDS011;62555;52.678;4.900;2023-03-18T13:51:49;2.08;;;1.60;;
74196;SDS011;62555;52.678;4.900;2023-03-18T13:54:14;2.42;;;1.83;;
74196;SDS011;62555;52.678;4.900;2023-03-18T13:56:48;3.17;;;1.80;;
74196;SDS011;62555;52.678;4.900;2023-03-18T14:02:22;2.28;;;1.92;;
74196;SDS011;62555;52.678;4.900;2023-03-18T14:04:44;1.80;;;1.70;;
74196;SDS011;62555;52.678;4.900;2023-03-18T14:12:42;8.93;;;2.20;;
74196;SDS011;62555;52.678;4.900;2023-03-18T14:17:51;2.10;;;1.90;;
74196;SDS011;62555;52.678;4.900;2023-03-18T14:20:20;2.25;;;2.00;;
74196;SDS011;62555;52.678;4.900;2023-03-18T14:22:48;2.85;;;1.92;;
74196;SDS011;62555;52.678;4.900;2023-03-18T14:27:52;3.53;;;2.50;;
74196;SDS011;62555;52.678;4.900;2023-03-18T14:32:56;2.53;;;2.30;;
74196;SDS011;62555;52.678;4.900;2023-03-18T14:35:26;2.50;;;2.28;;
74196;SDS011;62555;52.678;4.900;2023-03-18T14:38:07;6.45;;;2.20;;
74196;SDS011;62555;52.678;4.900;2023-03-18T14:40:34;2.67;;;1.92;;
74196;SDS011;62555;52.678;4.900;2023-03-18T14:43:01;3.17;;;1.92;;
74196;SDS011;62555;52.678;4.900;2023-03-18T14:45:32;6.80;;;2.05;;
74196;SDS011;62555;52.678;4.900;2023-03-18T14:47:57;3.83;;;2.15;;
74196;SDS011;62555;52.678;4.900;2023-03-18T14:52:50;2.22;;;2.03;;
74196;SDS011;62555;52.678;4.900;2023-03-18T14:55:18;2.70;;;2.00;;
74196;SDS011;62555;52.678;4.900;2023-03-18T14:57:45;2.10;;;1.90;;
74196;SDS011;62555;52.678;4.900;2023-03-18T15:00:20;2.13;;;1.90;;
74196;SDS011;62555;52.678;4.900;2023-03-18T15:02:45;2.30;;;1.98;;
74196;SDS011;62555;52.678;4.900;2023-03-18T15:05:14;2.88;;;1.70;;
74196;SDS011;62555;52.678;4.900;2023-03-18T15:07:40;3.83;;;1.98;;
74196;SDS011;62555;52.678;4.900;2023-03-18T15:10:07;2.95;;;2.10;;
74196;SDS011;62555;52.678;4.900;2023-03-18T15:12:34;2.60;;;1.90;;
74196;SDS011;62555;52.678;4.900;2023-03-18T15:15:02;3.47;;;2.20;;
74196;SDS011;62555;52.678;4.900;2023-03-18T15:17:27;4.82;;;2.30;;
74196;SDS011;62555;52.678;4.900;2023-03-18T15:19:58;2.88;;;2.30;;
74196;SDS011;62555;52.678;4.900;2023-03-18T15:22:25;3.33;;;2.10;;
74196;SDS011;62555;52.678;4.900;2023-03-18T15:24:53;2.65;;;1.70;;
74196;SDS011;62555;52.678;4.900;2023-03-18T15:27:21;2.30;;;1.60;;
74196;SDS011;62555;52.678;4.900;2023-03-18T15:29:51;2.40;;;2.20;;
74196;SDS011;62555;52.678;4.900;2023-03-18T15:34:56;2.13;;;1.60;;
74196;SDS011;62555;52.678;4.900;2023-03-18T15:37:30;5.43;;;2.05;;
74196;SDS011;62555;52.678;4.900;2023-03-18T15:40:08;2.28;;;2.08;;
74196;SDS011;62555;52.678;4.900;2023-03-18T15:42:38;3.15;;;1.98;;
74196;SDS011;62555;52.678;4.900;2023-03-18T15:45:03;2.27;;;2.03;;
74196;SDS011;62555;52.678;4.900;2023-03-18T15:47:29;4.90;;;1.92;;
74196;SDS011;62555;52.678;4.900;2023-03-18T15:49:59;2.55;;;2.00;;
74196;SDS011;62555;52.678;4.900;2023-03-18T15:52:26;2.53;;;2.00;;
74196;SDS011;62555;52.678;4.900;2023-03-18T15:54:53;2.90;;;1.90;;
74196;SDS011;62555;52.678;4.900;2023-03-18T15:57:30;2.17;;;1.77;;
74196;SDS011;62555;52.678;4.900;2023-03-18T15:59:56;2.22;;;1.60;;
74196;SDS011;62555;52.678;4.900;2023-03-18T16:02:21;4.27;;;2.20;;
74196;SDS011;62555;52.678;4.900;2023-03-18T16:04:47;2.63;;;1.60;;
74196;SDS011;62555;52.678;4.900;2023-03-18T16:07:16;2.50;;;1.80;;
74196;SDS011;62555;52.678;4.900;2023-03-18T16:09:42;2.65;;;1.77;;
74196;SDS011;62555;52.678;4.900;2023-03-18T16:12:15;2.70;;;2.17;;
74196;SDS011;62555;52.678;4.900;2023-03-18T16:14:43;1.88;;;1.77;;
74196;SDS011;62555;52.678;4.900;2023-03-18T16:17:13;1.63;;;1.48;;
74196;SDS011;62555;52.678;4.900;2023-03-18T16:19:40;3.38;;;1.58;;
74196;SDS011;62555;52.678;4.900;2023-03-18T16:22:07;1.70;;;1.60;;
74196;SDS011;62555;52.678;4.900;2023-03-18T16:24:32;2.33;;;1.90;;